Time;durP1;ratioP1;P1;durP2;ratioP2;P2;SDS_P1;SDS_P2;PMS_P1;PMS_P2;Temp;Humidity;BMP_temperature;BMP_pressure;BME280_temperature;BME280_humidity;BME280_pressure;Samples;Min_cycle;Max_cycle;Signal;HPM_P1;HPM_P2
2022/08/19 00:01:25;;;;;;;29.60;22.13;;;23.90;70.00;;;;;;5078886;28;20479;-74
2022/08/19 00:03:58;;;;;;;28.70;20.30;;;23.90;70.00;;;;;;5075863;28;20542;-73
2022/08/19 00:06:28;;;;;;;29.80;21.27;;;23.90;70.00;;;;;;5073969;28;20458;-74
2022/08/19 00:08:56;;;;;;;27.70;20.43;;;23.80;70.10;;;;;;5066906;28;20450;-73
2022/08/19 00:11:27;;;;;;;28.20;20.60;;;23.80;70.20;;;;;;5084065;28;20469;-74
2022/08/19 00:13:56;;;;;;;29.20;20.87;;;23.80;70.20;;;;;;5077832;28;20521;-74
2022/08/19 00:16:25;;;;;;;29.53;20.93;;;23.80;70.20;;;;;;5074479;28;20483;-74
2022/08/19 00:18:55;;;;;;;28.60;20.80;;;23.90;70.20;;;;;;5073301;28;20490;-74
2022/08/19 00:21:23;;;;;;;24.20;19.17;;;23.90;70.20;;;;;;5077600;28;20465;-74
2022/08/19 00:23:52;;;;;;;26.70;21.20;;;23.80;70.20;;;;;;5077338;28;20455;-74
2022/08/19 00:26:21;;;;;;;27.20;20.00;;;23.80;70.30;;;;;;5075114;28;21107;-74
2022/08/19 00:28:49;;;;;;;26.80;20.20;;;23.80;70.30;;;;;;5074498;28;20458;-75
2022/08/19 00:31:17;;;;;;;27.87;21.70;;;23.80;70.30;;;;;;5077070;28;20479;-73
2022/08/19 00:33:45;;;;;;;27.70;20.60;;;23.80;70.30;;;;;;5076057;28;21023;-74
2022/08/19 00:36:13;;;;;;;28.77;21.57;;;23.80;70.30;;;;;;5080644;28;20485;-73
2022/08/19 00:38:42;;;;;;;22.30;18.00;;;23.80;70.30;;;;;;5079523;28;20481;-73
2022/08/19 00:41:15;;;;;;;26.77;19.63;;;23.80;70.30;;;;;;5075941;28;20978;-75
2022/08/19 00:43:43;;;;;;;26.87;19.67;;;23.70;70.30;;;;;;5079632;28;20459;-74
2022/08/19 00:46:11;;;;;;;22.83;17.87;;;23.70;70.30;;;;;;5074275;28;20478;-74
2022/08/19 00:48:39;;;;;;;27.00;20.50;;;23.70;70.40;;;;;;5078346;28;20539;-74
2022/08/19 00:51:07;;;;;;;23.30;19.10;;;23.70;70.40;;;;;;5076759;28;20454;-74
2022/08/19 00:53:35;;;;;;;24.80;19.60;;;23.70;70.40;;;;;;5076102;28;20464;-73
2022/08/19 00:56:05;;;;;;;26.33;19.57;;;23.70;70.40;;;;;;5076635;28;20490;-74
2022/08/19 00:58:36;;;;;;;24.50;19.53;;;23.70;70.50;;;;;;5078316;28;20457;-74
2022/08/19 01:01:05;;;;;;;24.83;19.53;;;23.60;70.50;;;;;;5078334;28;20857;-73
2022/08/19 01:03:33;;;;;;;26.50;20.67;;;23.60;70.50;;;;;;5079630;28;20462;-73
2022/08/19 01:06:22;;;;;;;24.73;19.40;;;23.60;70.50;;;;;;5078676;28;20472;-74
2022/08/19 01:08:49;;;;;;;24.80;19.60;;;23.60;70.50;;;;;;5079198;28;20477;-74
2022/08/19 01:11:17;;;;;;;24.73;19.47;;;23.60;70.50;;;;;;5075811;28;20497;-76
2022/08/19 01:13:47;;;;;;;24.23;18.90;;;23.60;70.50;;;;;;5076271;28;20462;-74
2022/08/19 01:16:19;;;;;;;26.03;19.30;;;23.50;70.50;;;;;;5076023;28;20486;-75
2022/08/19 01:18:48;;;;;;;25.43;19.73;;;23.50;70.50;;;;;;5078046;28;20458;-74
2022/08/19 01:21:21;;;;;;;26.73;19.60;;;23.50;70.50;;;;;;5077650;28;20466;-75
2022/08/19 01:23:51;;;;;;;26.37;20.30;;;23.50;70.50;;;;;;5074598;28;20937;-74
2022/08/19 01:26:21;;;;;;;26.03;20.00;;;23.50;70.50;;;;;;5077592;28;20469;-74
2022/08/19 01:28:53;;;;;;;27.30;20.77;;;23.40;70.60;;;;;;5072514;28;20544;-74
2022/08/19 01:31:30;;;;;;;28.03;18.77;;;23.40;70.50;;;;;;5079614;28;20499;-73
2022/08/19 01:34:01;;;;;;;22.77;17.60;;;23.40;70.50;;;;;;5077204;28;20530;-74
2022/08/19 01:36:32;;;;;;;27.30;19.63;;;23.40;70.50;;;;;;5073638;28;21069;-74
2022/08/19 01:39:04;;;;;;;24.07;18.87;;;23.40;70.60;;;;;;5077240;28;20462;-74
2022/08/19 01:41:31;;;;;;;24.50;19.17;;;23.30;70.60;;;;;;5071482;28;20461;-73
2022/08/19 01:44:00;;;;;;;21.63;17.00;;;23.30;70.60;;;;;;5073518;28;20463;-74
2022/08/19 01:46:47;;;;;;;26.33;19.00;;;23.30;70.60;;;;;;5079440;28;20537;-74
2022/08/19 01:49:17;;;;;;;25.03;18.67;;;23.30;70.60;;;;;;5078999;28;20464;-74
2022/08/19 01:51:45;;;;;;;23.20;17.77;;;23.30;70.60;;;;;;5072817;28;20458;-74
2022/08/19 01:54:17;;;;;;;27.00;18.93;;;23.20;70.60;;;;;;5060685;28;20485;-74
2022/08/19 01:57:04;;;;;;;25.83;19.33;;;23.20;70.70;;;;;;5078480;28;20476;-74
2022/08/19 01:59:33;;;;;;;27.40;18.50;;;23.20;70.80;;;;;;5076605;28;20468;-74
2022/08/19 02:02:01;;;;;;;22.90;18.47;;;23.20;70.80;;;;;;5076286;28;20584;-73
2022/08/19 02:04:29;;;;;;;21.93;17.57;;;23.20;70.80;;;;;;5073143;28;20489;-74
2022/08/19 02:06:58;;;;;;;23.13;18.10;;;23.20;70.80;;;;;;5075511;28;20469;-74
2022/08/19 02:09:27;;;;;;;21.53;17.30;;;23.20;70.90;;;;;;5076344;28;20456;-74
2022/08/19 02:11:55;;;;;;;24.23;18.63;;;23.20;70.90;;;;;;5076978;28;20467;-74
2022/08/19 02:14:23;;;;;;;25.13;19.17;;;23.10;71.00;;;;;;5073976;28;20481;-74
2022/08/19 02:16:51;;;;;;;22.07;18.00;;;23.10;71.00;;;;;;5077076;28;20481;-74
2022/08/19 02:19:19;;;;;;;24.10;18.50;;;23.10;71.00;;;;;;5077812;28;20468;-74
2022/08/19 02:21:47;;;;;;;23.03;18.10;;;23.10;71.10;;;;;;5077727;28;20475;-74
2022/08/19 02:24:15;;;;;;;24.67;18.80;;;23.10;71.10;;;;;;5080054;28;20556;-74
2022/08/19 02:26:44;;;;;;;28.20;19.07;;;23.10;71.20;;;;;;5077618;28;20457;-74
2022/08/19 02:29:12;;;;;;;23.63;18.17;;;23.00;71.20;;;;;;5074075;28;20458;-74
2022/08/19 02:31:40;;;;;;;25.63;18.80;;;23.00;71.20;;;;;;5074133;28;20482;-73
2022/08/19 02:34:08;;;;;;;27.03;19.10;;;23.00;71.30;;;;;;5074195;28;20476;-74
2022/08/19 02:36:36;;;;;;;24.17;18.80;;;23.00;71.30;;;;;;5078915;28;21115;-74
2022/08/19 02:39:08;;;;;;;26.20;19.20;;;23.00;71.30;;;;;;5075398;28;21130;-74
2022/08/19 02:41:36;;;;;;;24.37;19.30;;;23.00;71.40;;;;;;5075568;28;20461;-74
2022/08/19 02:44:06;;;;;;;28.07;20.40;;;23.00;71.50;;;;;;5079191;28;20458;-73
2022/08/19 02:46:55;;;;;;;28.13;19.43;;;23.00;71.50;;;;;;5080269;28;21023;-74
2022/08/19 02:49:23;;;;;;;26.17;19.70;;;22.90;71.50;;;;;;5076921;28;20460;-73
2022/08/19 02:51:50;;;;;;;23.83;19.13;;;23.00;71.60;;;;;;5077873;28;20461;-73
2022/08/19 02:54:19;;;;;;;27.00;19.50;;;22.90;71.50;;;;;;5075382;28;20498;-74
2022/08/19 02:56:47;;;;;;;24.63;18.50;;;22.90;71.60;;;;;;5075781;28;20528;-74
2022/08/19 02:59:16;;;;;;;27.23;20.77;;;22.90;71.60;;;;;;5075063;28;20473;-73
2022/08/19 03:01:47;;;;;;;26.50;19.37;;;22.90;71.60;;;;;;5075184;28;20516;-74
2022/08/19 03:04:16;;;;;;;25.47;19.90;;;22.90;71.70;;;;;;5078492;28;21016;-73
2022/08/19 03:06:46;;;;;;;26.77;21.33;;;22.90;71.70;;;;;;5076420;28;20469;-74
2022/08/19 03:09:15;;;;;;;25.40;19.83;;;22.90;71.80;;;;;;5073368;28;20461;-74
2022/08/19 03:11:43;;;;;;;25.90;18.90;;;22.90;71.80;;;;;;5071385;28;20462;-75
2022/08/19 03:14:12;;;;;;;26.90;19.20;;;22.90;71.80;;;;;;5078238;28;21086;-75
2022/08/19 03:16:45;;;;;;;27.70;21.20;;;22.90;71.90;;;;;;5075904;28;20486;-75
2022/08/19 03:19:14;;;;;;;25.70;20.37;;;22.90;71.90;;;;;;5073411;28;20468;-74
2022/08/19 03:21:44;;;;;;;27.13;20.93;;;22.90;71.90;;;;;;5074147;28;20476;-74
2022/08/19 03:24:14;;;;;;;26.33;20.20;;;22.90;71.90;;;;;;5079262;28;20477;-72
2022/08/19 03:26:44;;;;;;;29.53;20.20;;;22.80;71.90;;;;;;5081519;28;20698;-73
2022/08/19 03:29:12;;;;;;;26.80;20.27;;;22.80;71.90;;;;;;5077900;28;20553;-73
2022/08/19 03:31:43;;;;;;;24.30;18.60;;;22.80;72.00;;;;;;5093817;28;20465;-74
2022/08/19 03:34:22;;;;;;;27.10;20.03;;;22.80;72.00;;;;;;5076262;28;20485;-74
2022/08/19 03:36:49;;;;;;;28.47;20.70;;;22.80;72.00;;;;;;5079760;28;20462;-74
2022/08/19 03:39:18;;;;;;;25.33;19.60;;;22.80;72.00;;;;;;5078420;28;20974;-74
2022/08/19 03:41:48;;;;;;;27.17;19.40;;;22.90;72.00;;;;;;5076994;28;20460;-73
2022/08/19 03:44:37;;;;;;;29.70;20.50;;;22.90;72.00;;;;;;5077521;28;20503;-75
2022/08/19 03:47:06;;;;;;;28.10;20.53;;;22.80;72.00;;;;;;5080547;28;20486;-73
2022/08/19 03:49:34;;;;;;;28.77;20.83;;;22.80;72.00;;;;;;5075397;28;20505;-73
2022/08/19 03:52:07;;;;;;;26.63;20.10;;;22.80;72.10;;;;;;5078283;28;20464;-74
2022/08/19 03:54:37;;;;;;;28.13;20.40;;;22.80;72.10;;;;;;5075618;28;20579;-73
2022/08/19 03:57:06;;;;;;;27.50;19.87;;;22.80;72.10;;;;;;5079408;28;20458;-74
2022/08/19 03:59:36;;;;;;;25.00;18.70;;;22.80;72.20;;;;;;5079643;28;21188;-73
2022/08/19 04:02:12;;;;;;;25.17;18.73;;;22.80;72.10;;;;;;5076069;28;20477;-74
2022/08/19 04:04:42;;;;;;;30.70;19.83;;;22.80;72.10;;;;;;5078215;28;20481;-75
2022/08/19 04:07:12;;;;;;;26.30;20.00;;;22.80;72.20;;;;;;5080055;28;20547;-73
2022/08/19 04:09:40;;;;;;;27.30;19.60;;;22.70;72.20;;;;;;5079445;28;20450;-75
2022/08/19 04:12:09;;;;;;;27.00;19.53;;;22.80;72.20;;;;;;5080930;28;20455;-73
2022/08/19 04:14:37;;;;;;;27.23;20.53;;;22.70;72.20;;;;;;5082112;28;20572;-74
2022/08/19 04:17:06;;;;;;;26.17;19.53;;;22.70;72.30;;;;;;5086699;28;20496;-75
2022/08/19 04:19:36;;;;;;;25.73;19.47;;;22.70;72.30;;;;;;5084200;28;20931;-74
2022/08/19 04:22:06;;;;;;;26.57;18.40;;;22.70;72.30;;;;;;5088312;28;20845;-74
2022/08/19 04:24:36;;;;;;;27.00;19.57;;;22.70;72.40;;;;;;5088694;28;20485;-74
2022/08/19 04:27:08;;;;;;;27.33;21.40;;;22.70;72.40;;;;;;5086272;28;20453;-74
2022/08/19 04:30:02;;;;;;;24.30;18.70;;;22.70;72.40;;;;;;5084673;28;20950;-75
2022/08/19 04:32:31;;;;;;;25.60;19.10;;;22.70;72.50;;;;;;5079139;28;20494;-74
2022/08/19 04:35:00;;;;;;;27.30;19.80;;;22.80;72.50;;;;;;5077572;28;20503;-74
2022/08/19 04:37:46;;;;;;;27.80;20.20;;;22.80;72.50;;;;;;5077786;28;20493;-73
2022/08/19 04:43:00;;;;;;;25.23;18.90;;;22.80;72.60;;;;;;5078739;28;20470;-73
2022/08/19 04:45:28;;;;;;;24.83;18.67;;;22.80;72.60;;;;;;5072826;28;21005;-73
2022/08/19 04:48:06;;;;;;;24.20;18.97;;;22.80;72.60;;;;;;5077287;28;20954;-74
2022/08/19 04:50:58;;;;;;;27.00;20.80;;;22.80;72.60;;;;;;5076784;28;20810;-74
2022/08/19 04:53:28;;;;;;;28.90;19.70;;;22.80;72.70;;;;;;5079753;28;20457;-73
2022/08/19 04:55:57;;;;;;;24.53;17.40;;;22.80;72.70;;;;;;5077016;28;20469;-73
2022/08/19 04:58:27;;;;;;;26.77;19.27;;;22.90;72.70;;;;;;5076280;28;21005;-74
2022/08/19 05:00:55;;;;;;;21.23;16.80;;;22.90;72.70;;;;;;5076669;28;21172;-75
2022/08/19 05:03:23;;;;;;;24.87;19.03;;;22.90;72.70;;;;;;5076457;28;20497;-74
2022/08/19 05:05:58;;;;;;;24.17;18.83;;;22.90;72.70;;;;;;5074677;28;20557;-74
2022/08/19 05:08:26;;;;;;;23.90;18.30;;;22.90;72.80;;;;;;5079499;28;20464;-74
2022/08/19 05:10:58;;;;;;;25.17;18.30;;;22.90;72.80;;;;;;5076615;28;20468;-74
2022/08/19 05:13:26;;;;;;;23.90;18.10;;;22.90;72.80;;;;;;5072574;28;20469;-75
2022/08/19 05:15:55;;;;;;;22.60;17.10;;;22.90;72.90;;;;;;5073500;28;20528;-75
2022/08/19 05:23:59;;;;;;;24.40;17.20;;;22.90;72.90;;;;;;5075327;28;21113;-74
2022/08/19 05:26:27;;;;;;;21.60;15.83;;;22.90;73.00;;;;;;5071625;28;20465;-74
2022/08/19 05:28:56;;;;;;;21.83;16.77;;;22.90;73.10;;;;;;5074316;28;20472;-74
2022/08/19 05:31:23;;;;;;;21.50;17.07;;;23.00;73.10;;;;;;5072088;28;21153;-73
2022/08/19 05:33:52;;;;;;;26.30;19.13;;;23.00;73.10;;;;;;5073933;28;20453;-73
2022/08/19 05:36:22;;;;;;;24.17;18.00;;;23.00;73.10;;;;;;5071684;28;21127;-73
2022/08/19 05:38:50;;;;;;;24.37;18.23;;;23.00;73.10;;;;;;5074176;28;20480;-75
2022/08/19 05:41:18;;;;;;;26.90;18.30;;;23.00;73.10;;;;;;5071804;28;20981;-73
2022/08/19 05:43:45;;;;;;;23.10;17.60;;;23.00;73.00;;;;;;5076980;28;20499;-74
2022/08/19 05:46:18;;;;;;;26.20;18.87;;;23.00;73.00;;;;;;5075487;28;20473;-75
2022/08/19 05:48:56;;;;;;;25.70;18.20;;;23.00;72.90;;;;;;5071725;28;20845;-73
2022/08/19 05:51:25;;;;;;;24.10;18.23;;;23.00;73.00;;;;;;5075015;28;20490;-73
2022/08/19 05:53:56;;;;;;;26.53;20.20;;;23.00;72.90;;;;;;5075374;28;20471;-74
2022/08/19 05:56:24;;;;;;;26.20;19.30;;;23.10;73.00;;;;;;5074063;28;20466;-73
2022/08/19 05:58:53;;;;;;;26.73;19.70;;;23.10;73.00;;;;;;5058089;28;20897;-73
2022/08/19 06:01:21;;;;;;;30.47;19.60;;;23.20;73.00;;;;;;5074001;28;20486;-74
2022/08/19 06:03:49;;;;;;;25.60;19.20;;;23.20;72.90;;;;;;5076726;28;20458;-75
2022/08/19 06:06:18;;;;;;;26.90;20.37;;;23.20;73.00;;;;;;5056452;28;20486;-75
2022/08/19 06:08:49;;;;;;;29.27;19.67;;;23.20;73.00;;;;;;5075334;28;20465;-75
2022/08/19 06:11:21;;;;;;;23.97;18.20;;;23.20;72.90;;;;;;5079442;28;20464;-73
2022/08/19 06:13:52;;;;;;;24.60;19.00;;;23.20;72.90;;;;;;5075644;28;20473;-75
2022/08/19 06:16:28;;;;;;;25.53;19.53;;;23.20;72.90;;;;;;5075881;28;20467;-74
2022/08/19 06:18:57;;;;;;;30.80;20.10;;;23.20;72.90;;;;;;5070262;28;20485;-74
2022/08/19 06:21:27;;;;;;;26.37;20.20;;;23.20;72.90;;;;;;5070341;28;20477;-75
2022/08/19 06:23:58;;;;;;;27.03;18.93;;;23.30;72.90;;;;;;5073406;28;21197;-75
2022/08/19 06:26:27;;;;;;;25.50;19.30;;;23.30;73.00;;;;;;5076875;28;20474;-74
2022/08/19 06:28:55;;;;;;;27.53;18.40;;;23.30;73.00;;;;;;5076322;28;20450;-74
2022/08/19 06:31:25;;;;;;;25.10;18.83;;;23.30;73.00;;;;;;5075215;28;20502;-75
2022/08/19 06:33:53;;;;;;;24.80;19.43;;;23.30;73.00;;;;;;5074215;28;20500;-74
2022/08/19 06:36:29;;;;;;;23.20;17.70;;;23.40;72.90;;;;;;5073228;28;20913;-75
2022/08/19 06:38:59;;;;;;;25.70;17.90;;;23.40;72.90;;;;;;5073013;28;20489;-76
2022/08/19 06:41:27;;;;;;;23.10;17.17;;;23.50;72.90;;;;;;5072405;28;21010;-75
2022/08/19 06:43:56;;;;;;;21.77;17.00;;;23.50;72.90;;;;;;5072480;28;20532;-74
2022/08/19 06:46:24;;;;;;;23.43;17.17;;;23.50;72.80;;;;;;5073470;28;20482;-74
2022/08/19 06:48:53;;;;;;;23.43;17.13;;;23.50;72.80;;;;;;5091860;28;20454;-75
2022/08/19 06:51:23;;;;;;;23.37;17.27;;;23.60;72.80;;;;;;5073705;28;20525;-75
2022/08/19 06:53:53;;;;;;;21.00;17.03;;;23.60;72.80;;;;;;5076834;28;21056;-76
2022/08/19 06:56:30;;;;;;;25.20;18.97;;;23.60;72.70;;;;;;5079962;28;20499;-74
2022/08/19 06:58:58;;;;;;;21.57;18.00;;;23.60;72.70;;;;;;5077060;28;20490;-74
2022/08/19 07:01:27;;;;;;;19.73;16.30;;;23.60;72.60;;;;;;5071546;28;20478;-74
2022/08/19 07:03:55;;;;;;;20.93;15.63;;;23.60;72.70;;;;;;5073910;28;20845;-75
2022/08/19 07:06:25;;;;;;;20.70;16.17;;;23.60;72.80;;;;;;5075125;28;20465;-75
2022/08/19 07:09:13;;;;;;;20.90;16.40;;;23.60;72.90;;;;;;5077045;28;21376;-75
2022/08/19 07:11:47;;;;;;;24.43;18.07;;;23.50;72.90;;;;;;5076221;28;20485;-75
2022/08/19 07:14:17;;;;;;;20.73;15.60;;;23.50;72.90;;;;;;5070822;28;21188;-75
2022/08/19 07:16:48;;;;;;;19.83;16.70;;;23.50;72.90;;;;;;5071847;28;20514;-75
2022/08/19 07:19:17;;;;;;;22.10;17.73;;;23.50;73.00;;;;;;5059991;28;20831;-75
2022/08/19 07:21:49;;;;;;;21.37;16.40;;;23.50;73.00;;;;;;5073457;28;20531;-75
2022/08/19 07:24:18;;;;;;;24.77;17.80;;;23.50;73.00;;;;;;5073626;28;20820;-75
2022/08/19 07:26:47;;;;;;;20.53;16.33;;;23.40;73.20;;;;;;5071320;28;20459;-76
2022/08/19 07:29:22;;;;;;;26.30;17.67;;;23.40;73.20;;;;;;5072294;28;20449;-76
2022/08/19 07:31:56;;;;;;;21.00;16.60;;;23.50;73.30;;;;;;5069487;28;20588;-75
2022/08/19 07:34:24;;;;;;;21.40;16.30;;;23.50;73.40;;;;;;5073834;28;20497;-75
2022/08/19 07:36:53;;;;;;;22.23;17.10;;;23.50;73.40;;;;;;5071706;28;20464;-75
2022/08/19 07:39:25;;;;;;;25.00;16.97;;;23.60;73.40;;;;;;5057467;28;21092;-75
2022/08/19 07:41:55;;;;;;;23.00;17.50;;;23.60;73.40;;;;;;5058518;28;20577;-76
2022/08/19 07:44:23;;;;;;;21.43;16.30;;;23.60;73.40;;;;;;5074199;28;20481;-75
2022/08/19 07:46:53;;;;;;;22.70;17.60;;;23.60;73.50;;;;;;5076289;28;20470;-75
2022/08/19 07:49:21;;;;;;;18.67;15.60;;;23.70;73.50;;;;;;5077679;28;20453;-75
2022/08/19 07:51:51;;;;;;;21.03;16.10;;;23.70;73.40;;;;;;5078198;28;20565;-74
2022/08/19 07:54:21;;;;;;;23.10;18.23;;;23.80;73.40;;;;;;5076549;28;20894;-75
2022/08/19 07:56:50;;;;;;;22.10;17.00;;;23.80;73.50;;;;;;5071564;28;20457;-75
2022/08/19 07:59:22;;;;;;;23.53;16.97;;;23.90;73.50;;;;;;5069531;28;20535;-74
2022/08/19 08:01:50;;;;;;;18.93;15.80;;;23.90;73.40;;;;;;5069495;28;20485;-74
2022/08/19 08:09:59;;;;;;;22.87;17.70;;;24.00;73.50;;;;;;5068512;28;20503;-75
2022/08/19 08:12:32;;;;;;;17.77;14.57;;;24.00;73.40;;;;;;5075536;28;20459;-75
2022/08/19 08:15:09;;;;;;;21.80;16.03;;;24.00;73.40;;;;;;5077643;28;20573;-76
2022/08/19 08:17:40;;;;;;;21.80;16.60;;;24.10;73.30;;;;;;5075608;28;20459;-74
2022/08/19 08:20:19;;;;;;;21.80;14.83;;;24.10;73.20;;;;;;5075220;28;20498;-75
2022/08/19 08:25:33;;;;;;;18.80;16.33;;;24.10;73.20;;;;;;5077064;28;20499;-75
2022/08/19 08:28:23;;;;;;;20.37;16.07;;;24.20;73.10;;;;;;5077317;28;20481;-76
2022/08/19 08:30:55;;;;;;;21.97;15.27;;;24.20;73.00;;;;;;5065481;28;20601;-74
2022/08/19 08:33:25;;;;;;;19.83;16.37;;;24.20;72.90;;;;;;5077968;28;20461;-74
2022/08/19 08:36:02;;;;;;;22.03;14.63;;;24.20;72.90;;;;;;5095326;28;20499;-75
2022/08/19 08:38:31;;;;;;;19.10;14.40;;;24.20;72.90;;;;;;5078999;28;20477;-75
2022/08/19 08:41:18;;;;;;;15.93;12.30;;;24.20;72.90;;;;;;5075863;28;20477;-75
2022/08/19 08:43:50;;;;;;;16.83;12.53;;;24.20;72.70;;;;;;5076789;28;20470;-75
2022/08/19 08:46:26;;;;;;;15.83;12.07;;;24.20;72.70;;;;;;5076886;28;20491;-76
2022/08/19 08:49:08;;;;;;;14.70;10.80;;;24.20;72.40;;;;;;5061081;28;20474;-77
2022/08/19 08:51:43;;;;;;;15.27;10.93;;;24.20;72.40;;;;;;5080809;28;20582;-75
2022/08/19 08:54:18;;;;;;;16.30;10.50;;;24.20;72.40;;;;;;5077586;28;20468;-75
2022/08/19 08:56:48;;;;;;;16.10;10.87;;;24.20;72.40;;;;;;5061291;28;20476;-75
2022/08/19 08:59:22;;;;;;;15.70;10.00;;;24.20;72.30;;;;;;5080860;28;20454;-76
2022/08/19 09:01:52;;;;;;;14.00;8.90;;;24.20;72.20;;;;;;5075314;28;20483;-76
2022/08/19 09:04:20;;;;;;;11.73;8.80;;;24.20;72.00;;;;;;5078032;28;20499;-75
2022/08/19 09:07:12;;;;;;;13.80;9.73;;;24.20;72.00;;;;;;5079683;28;20462;-75
2022/08/19 09:10:09;;;;;;;10.00;7.93;;;24.20;71.80;;;;;;5072288;28;20538;-75
2022/08/19 09:12:44;;;;;;;13.27;8.90;;;24.20;71.80;;;;;;5075205;28;20455;-75
2022/08/19 09:15:15;;;;;;;13.47;7.80;;;24.20;71.70;;;;;;5064984;28;20539;-75
2022/08/19 09:17:45;;;;;;;14.27;7.70;;;24.20;71.60;;;;;;5078326;28;20448;-74
2022/08/19 09:20:21;;;;;;;11.43;8.13;;;24.30;71.60;;;;;;5075368;28;20483;-76
2022/08/19 09:22:49;;;;;;;9.27;6.60;;;24.30;71.50;;;;;;5077552;28;20980;-74
2022/08/19 09:25:21;;;;;;;12.60;6.93;;;24.30;71.30;;;;;;5076725;28;20480;-76
2022/08/19 09:27:56;;;;;;;9.33;5.30;;;24.40;70.90;;;;;;5076636;28;20935;-73
2022/08/19 09:30:34;;;;;;;9.93;5.37;;;24.30;70.20;;;;;;5071843;28;20481;-74
2022/08/19 09:33:04;;;;;;;10.77;6.00;;;24.30;70.00;;;;;;5076613;28;20506;-74
2022/08/19 09:35:32;;;;;;;7.33;4.43;;;24.30;70.00;;;;;;5076997;28;21245;-74
2022/08/19 09:38:19;;;;;;;9.47;5.13;;;24.40;69.80;;;;;;5073445;28;20456;-74
2022/08/19 09:40:47;;;;;;;8.00;4.20;;;24.40;69.60;;;;;;5076115;28;20507;-74
2022/08/19 09:43:15;;;;;;;6.90;4.50;;;24.50;69.20;;;;;;5072059;28;20460;-74
2022/08/19 09:46:00;;;;;;;7.47;4.63;;;24.50;69.10;;;;;;5070585;28;20925;-73
2022/08/19 09:48:30;;;;;;;6.90;4.00;;;24.40;68.50;;;;;;5073555;28;20452;-74
2022/08/19 09:51:04;;;;;;;7.10;4.23;;;24.40;68.50;;;;;;5072396;28;20786;-74
2022/08/19 09:53:32;;;;;;;7.40;4.40;;;24.40;67.90;;;;;;5079964;28;20449;-74
2022/08/19 09:56:01;;;;;;;8.00;5.27;;;24.30;68.00;;;;;;5071444;28;20709;-74
2022/08/19 09:58:31;;;;;;;12.17;4.93;;;24.20;67.90;;;;;;5075824;28;20459;-74
2022/08/19 10:01:00;;;;;;;8.03;5.27;;;24.20;68.00;;;;;;5078587;28;20993;-74
2022/08/19 10:03:30;;;;;;;7.90;4.80;;;24.30;68.10;;;;;;5075506;28;20475;-73
2022/08/19 10:06:00;;;;;;;6.73;4.33;;;24.30;68.10;;;;;;5076822;28;21021;-73
2022/08/19 10:08:30;;;;;;;8.83;5.90;;;24.40;67.80;;;;;;5074950;28;20467;-75
2022/08/19 10:10:58;;;;;;;7.77;4.80;;;24.40;67.80;;;;;;5080776;28;20445;-74
2022/08/19 10:13:47;;;;;;;7.63;4.80;;;24.50;67.70;;;;;;5079424;28;20799;-74
2022/08/19 10:16:18;;;;;;;7.93;5.27;;;24.60;67.60;;;;;;5069205;28;20487;-75
2022/08/19 10:18:49;;;;;;;7.60;5.47;;;24.70;67.50;;;;;;5084291;28;20519;-73
2022/08/19 10:21:27;;;;;;;8.93;5.70;;;24.70;67.40;;;;;;5081585;28;20502;-74
2022/08/19 10:24:03;;;;;;;8.50;5.60;;;24.70;67.10;;;;;;5081904;28;20473;-74
2022/08/19 10:26:33;;;;;;;7.90;6.00;;;24.70;67.00;;;;;;5080316;28;20459;-74
2022/08/19 10:29:01;;;;;;;8.80;5.70;;;24.70;67.20;;;;;;5073258;28;20456;-74
2022/08/19 10:31:31;;;;;;;8.47;5.27;;;24.70;67.20;;;;;;5072839;28;20901;-75
2022/08/19 10:34:20;;;;;;;13.67;6.40;;;24.70;67.10;;;;;;5071131;28;20622;-75
2022/08/19 10:36:55;;;;;;;8.27;6.30;;;24.70;67.00;;;;;;5072338;28;20989;-74
2022/08/19 10:39:29;;;;;;;8.27;5.90;;;24.70;67.00;;;;;;5071121;28;20529;-75
2022/08/19 10:41:58;;;;;;;9.87;5.60;;;24.70;67.10;;;;;;5069700;28;20540;-73
2022/08/19 10:44:29;;;;;;;8.50;5.57;;;24.70;67.10;;;;;;5058467;28;20481;-75
2022/08/19 10:46:59;;;;;;;10.87;6.00;;;24.80;67.10;;;;;;5069250;28;21455;-75
2022/08/19 10:49:29;;;;;;;10.10;6.60;;;24.80;67.10;;;;;;5067902;28;20463;-76
2022/08/19 10:57:35;;;;;;;9.50;5.87;;;25.00;67.20;;;;;;5065903;28;20479;-74
2022/08/19 11:00:24;;;;;;;9.70;5.60;;;25.10;67.10;;;;;;5071205;28;20841;-74
2022/08/19 11:02:53;;;;;;;10.83;6.30;;;25.10;67.00;;;;;;5067862;28;20579;-73
2022/08/19 11:05:22;;;;;;;8.00;5.87;;;25.10;66.80;;;;;;5069769;28;20481;-74
2022/08/19 11:07:51;;;;;;;7.10;5.20;;;25.10;66.60;;;;;;5055834;28;20826;-74
2022/08/19 11:10:21;;;;;;;9.10;5.07;;;25.10;66.40;;;;;;5070476;28;20551;-74
2022/08/19 11:12:54;;;;;;;8.87;5.20;;;25.10;66.30;;;;;;5066529;28;20571;-75
2022/08/19 11:15:22;;;;;;;8.50;5.97;;;25.00;66.30;;;;;;5067529;28;20487;-73
2022/08/19 11:17:54;;;;;;;7.53;5.10;;;25.00;66.30;;;;;;5072175;28;20456;-74
2022/08/19 11:20:24;;;;;;;8.13;4.80;;;25.00;66.30;;;;;;5068286;28;20465;-73
2022/08/19 11:22:53;;;;;;;9.80;4.80;;;25.00;66.30;;;;;;5066140;28;20988;-76
2022/08/19 11:25:21;;;;;;;8.33;4.83;;;25.00;66.10;;;;;;5069903;28;20491;-75
2022/08/19 11:27:50;;;;;;;7.43;5.00;;;25.00;65.90;;;;;;5067837;28;21316;-75
2022/08/19 11:30:18;;;;;;;6.57;4.50;;;25.00;66.10;;;;;;5066612;28;20456;-73
2022/08/19 11:32:47;;;;;;;8.20;4.93;;;25.10;66.20;;;;;;5068100;28;20891;-75
2022/08/19 11:35:19;;;;;;;7.03;4.47;;;25.10;65.90;;;;;;5070486;28;20991;-74
2022/08/19 11:37:48;;;;;;;6.87;4.33;;;25.10;65.90;;;;;;5069926;28;20468;-74
2022/08/19 11:40:16;;;;;;;7.43;4.33;;;25.20;65.90;;;;;;5070411;28;20453;-74
2022/08/19 11:42:56;;;;;;;6.20;4.30;;;25.20;65.90;;;;;;5066277;28;20613;-73
2022/08/19 11:45:24;;;;;;;9.30;4.50;;;25.30;65.50;;;;;;5068145;28;20480;-74
2022/08/19 11:47:52;;;;;;;6.77;4.67;;;25.30;65.40;;;;;;5074367;28;20457;-74
2022/08/19 11:50:21;;;;;;;6.37;4.37;;;25.40;65.40;;;;;;5070668;28;20916;-74
2022/08/19 11:52:51;;;;;;;6.03;3.50;;;25.40;65.30;;;;;;5071565;28;21174;-73
2022/08/19 11:55:19;;;;;;;7.00;3.67;;;25.40;64.80;;;;;;5062133;28;20916;-74
2022/08/19 11:57:47;;;;;;;6.13;3.90;;;25.50;64.90;;;;;;5072956;28;20468;-74
2022/08/19 12:00:15;;;;;;;8.30;4.03;;;25.60;64.80;;;;;;5075343;28;20463;-74
2022/08/19 12:02:43;;;;;;;7.60;3.53;;;25.70;64.60;;;;;;5071940;28;20486;-74
2022/08/19 12:05:11;;;;;;;7.37;3.80;;;25.70;64.50;;;;;;5070413;28;20486;-76
2022/08/19 12:07:43;;;;;;;6.83;3.87;;;25.70;64.40;;;;;;5072320;28;20882;-74
2022/08/19 12:10:13;;;;;;;6.20;3.47;;;25.80;64.30;;;;;;5074420;28;20477;-75
2022/08/19 12:12:46;;;;;;;9.40;4.60;;;25.80;64.20;;;;;;5071620;28;20467;-74
2022/08/19 12:15:22;;;;;;;6.83;4.17;;;25.80;64.10;;;;;;5075622;28;20485;-75
2022/08/19 12:17:56;;;;;;;6.37;3.77;;;25.80;63.90;;;;;;5072897;28;20464;-75
2022/08/19 12:20:26;;;;;;;6.47;3.87;;;25.80;63.80;;;;;;5072428;28;20464;-73
2022/08/19 12:22:54;;;;;;;7.03;3.53;;;25.80;63.70;;;;;;5077739;28;20496;-74
2022/08/19 12:25:24;;;;;;;5.37;3.23;;;25.80;63.50;;;;;;5074421;28;20574;-75
2022/08/19 12:27:52;;;;;;;6.00;3.63;;;25.80;63.30;;;;;;5072495;28;20520;-74
2022/08/19 12:30:25;;;;;;;9.30;3.13;;;25.80;63.20;;;;;;5071722;28;20482;-75
2022/08/19 12:32:53;;;;;;;6.70;3.70;;;25.80;63.00;;;;;;5070768;28;20458;-74
2022/08/19 12:35:21;;;;;;;6.53;3.43;;;25.80;62.60;;;;;;5072313;28;20545;-75
2022/08/19 12:37:49;;;;;;;5.30;3.20;;;25.80;62.80;;;;;;5075866;28;20542;-75
2022/08/19 12:40:25;;;;;;;9.10;3.87;;;25.70;62.60;;;;;;5071149;28;20464;-75
2022/08/19 12:42:53;;;;;;;5.20;3.20;;;25.70;62.60;;;;;;5073428;28;20474;-75
2022/08/19 12:45:22;;;;;;;6.10;3.73;;;25.70;62.60;;;;;;5071438;28;20540;-75
2022/08/19 12:47:51;;;;;;;6.87;2.97;;;25.70;62.70;;;;;;5071151;28;20460;-75
2022/08/19 12:50:22;;;;;;;5.63;3.50;;;25.80;62.60;;;;;;5075010;28;20437;-75
2022/08/19 12:52:49;;;;;;;5.43;3.23;;;25.80;62.40;;;;;;5072420;28;20461;-75
2022/08/19 12:55:18;;;;;;;5.90;3.30;;;25.80;62.50;;;;;;5069707;28;20477;-75
2022/08/19 12:57:48;;;;;;;5.10;3.03;;;25.80;62.40;;;;;;5071350;28;20462;-74
2022/08/19 13:00:20;;;;;;;5.30;3.40;;;25.90;62.30;;;;;;5073771;28;20458;-74
2022/08/19 13:02:52;;;;;;;5.47;2.87;;;25.90;62.20;;;;;;5071170;28;20469;-75
2022/08/19 13:05:22;;;;;;;6.20;3.53;;;25.80;62.20;;;;;;5075691;28;20491;-74
2022/08/19 13:07:51;;;;;;;6.67;3.43;;;25.80;62.20;;;;;;5076392;28;20453;-75
2022/08/19 13:10:22;;;;;;;7.53;3.37;;;25.80;62.10;;;;;;5076505;28;20488;-75
2022/08/19 13:12:52;;;;;;;6.83;3.20;;;25.80;62.10;;;;;;5073812;28;20460;-74
2022/08/19 13:15:22;;;;;;;7.50;3.30;;;25.70;62.20;;;;;;5070384;28;21025;-75